Time;durP1;ratioP1;P1;durP2;ratioP2;P2;SDS_P1;SDS_P2;PMS_P1;PMS_P2;Temp;Humidity;BMP_temperature;BMP_pressure;BME280_temperature;BME280_humidity;BME280_pressure;Samples;Min_cycle;Max_cycle;Signal;HPM_P1;HPM_P2
2022/04/25 05:00:30;;;;;;;17.92;13.07;;;9.20;99.90;;;;;;6099896;23;20020;31
2022/04/25 05:02:58;;;;;;;19.08;13.23;;;9.30;99.90;;;;;;4879723;29;20072;-84
2022/04/25 05:05:27;;;;;;;17.50;13.18;;;9.40;99.90;;;;;;4881132;29;20131;-83
2022/04/25 05:07:55;;;;;;;17.45;13.30;;;9.30;99.90;;;;;;4881669;29;20469;-84
2022/04/25 05:10:22;;;;;;;16.35;12.52;;;9.30;99.90;;;;;;4881623;29;20088;-84
2022/04/25 05:12:52;;;;;;;16.65;12.18;;;9.40;99.90;;;;;;4881581;29;20105;-84
2022/04/25 05:15:20;;;;;;;16.85;12.35;;;9.40;99.90;;;;;;4865239;29;20095;-84
2022/04/25 05:17:50;;;;;;;17.55;12.82;;;9.40;99.90;;;;;;4881405;29;20205;-83
2022/04/25 05:20:18;;;;;;;18.00;12.15;;;9.40;99.90;;;;;;4880816;29;20568;-84
2022/04/25 05:22:47;;;;;;;17.38;12.30;;;9.40;99.90;;;;;;4880373;29;20057;-84
2022/04/25 05:25:15;;;;;;;17.90;12.40;;;9.40;99.90;;;;;;4881506;29;20139;-84
2022/04/25 05:27:44;;;;;;;18.27;12.77;;;9.50;99.90;;;;;;4881576;29;20521;-85
2022/04/25 05:30:15;;;;;;;17.05;12.23;;;9.40;99.90;;;;;;4881851;29;20407;-84
2022/04/25 05:32:49;;;;;;;16.83;12.00;;;9.50;99.90;;;;;;4881180;29;20132;-84
2022/04/25 05:35:18;;;;;;;16.73;12.73;;;9.60;99.90;;;;;;4881312;29;20084;-83
2022/04/25 05:37:47;;;;;;;16.67;12.55;;;9.60;99.90;;;;;;4880666;29;20057;-83
2022/04/25 05:40:16;;;;;;;16.05;12.23;;;9.70;99.90;;;;;;4886777;29;20136;-84
2022/04/25 05:42:44;;;;;;;16.92;12.57;;;9.60;99.90;;;;;;4889427;29;20103;-84
2022/04/25 05:45:14;;;;;;;17.60;13.20;;;9.60;99.90;;;;;;4885596;29;20118;-84
2022/04/25 05:47:42;;;;;;;19.70;14.05;;;9.70;99.90;;;;;;4885275;29;20049;-83
2022/04/25 05:52:58;;;;;;;18.15;12.98;;;9.70;99.90;;;;;;4880594;29;20060;-84
2022/04/25 05:55:25;;;;;;;17.70;14.00;;;9.70;99.90;;;;;;4880933;29;20059;-84
2022/04/25 05:57:53;;;;;;;19.33;13.90;;;9.70;99.90;;;;;;4884283;29;20084;-84
2022/04/25 06:00:20;;;;;;;18.23;13.95;;;9.80;99.90;;;;;;4878876;29;20131;-85
2022/04/25 06:02:48;;;;;;;18.25;13.82;;;9.80;99.90;;;;;;4862474;29;20156;-84
2022/04/25 06:05:16;;;;;;;18.63;14.18;;;10.00;99.90;;;;;;4862060;29;20062;-85
2022/04/25 06:07:46;;;;;;;19.33;14.45;;;10.00;99.90;;;;;;4862060;29;20069;-84
2022/04/25 06:10:15;;;;;;;17.88;13.70;;;10.00;99.90;;;;;;4862373;29;20479;-83
2022/04/25 06:12:44;;;;;;;18.35;14.45;;;10.00;99.90;;;;;;4862927;29;20049;-84
2022/04/25 06:15:12;;;;;;;18.33;14.40;;;10.00;99.90;;;;;;4862222;29;20057;-85
2022/04/25 06:17:40;;;;;;;21.33;15.45;;;10.00;99.90;;;;;;4861538;29;20092;-85
2022/04/25 06:20:10;;;;;;;20.05;15.70;;;10.00;99.90;;;;;;4861628;29;20102;-84
2022/04/25 06:22:40;;;;;;;20.48;15.20;;;10.00;99.90;;;;;;4862426;29;20050;-84
2022/04/25 06:25:08;;;;;;;20.00;15.30;;;10.10;99.90;;;;;;4846399;29;20056;-83
2022/04/25 06:27:35;;;;;;;18.80;13.88;;;10.20;99.90;;;;;;4861842;29;20477;-84
2022/04/25 06:30:04;;;;;;;18.98;14.43;;;10.20;99.90;;;;;;4861611;29;20061;-83
2022/04/25 06:32:31;;;;;;;19.75;14.43;;;10.30;99.90;;;;;;4861464;29;20133;-83
2022/04/25 06:34:59;;;;;;;18.20;14.75;;;10.30;99.90;;;;;;4861034;29;20149;-83
2022/04/25 06:37:26;;;;;;;19.73;14.93;;;10.40;99.90;;;;;;4861960;29;20057;-83
2022/04/25 06:39:55;;;;;;;19.35;14.70;;;10.40;99.90;;;;;;4862936;29;20137;-83
2022/04/25 06:42:25;;;;;;;19.10;14.57;;;10.40;99.90;;;;;;4861852;29;20095;-83
2022/04/25 06:44:52;;;;;;;18.45;14.00;;;10.40;99.90;;;;;;4861712;29;20064;-85
2022/04/25 06:47:19;;;;;;;18.67;14.27;;;10.50;99.90;;;;;;4860994;29;20089;-83
2022/04/25 06:49:46;;;;;;;19.52;14.35;;;10.50;99.90;;;;;;4861691;29;20064;-84
2022/04/25 06:52:15;;;;;;;17.83;13.43;;;10.40;99.90;;;;;;4861660;29;20111;-83
2022/04/25 06:54:42;;;;;;;17.60;13.70;;;10.50;99.90;;;;;;4861297;29;20057;-84
2022/04/25 06:57:11;;;;;;;17.75;14.18;;;10.60;99.90;;;;;;4861118;29;20570;-85
2022/04/25 06:59:38;;;;;;;18.08;14.18;;;10.60;99.90;;;;;;4859840;29;20132;-84
2022/04/25 07:02:05;;;;;;;17.85;13.57;;;10.70;99.90;;;;;;4874823;29;20057;-85
2022/04/25 07:04:33;;;;;;;17.15;13.45;;;10.70;99.90;;;;;;4879646;29;20472;-84
2022/04/25 07:07:00;;;;;;;17.20;13.70;;;10.70;99.90;;;;;;4879522;29;20144;-85
2022/04/25 07:09:27;;;;;;;17.85;13.63;;;10.70;99.90;;;;;;4879604;29;20589;-84
2022/04/25 07:11:54;;;;;;;16.90;13.65;;;10.70;99.90;;;;;;4879941;29;20053;-83
2022/04/25 07:14:23;;;;;;;17.85;14.18;;;10.70;99.90;;;;;;4879630;29;20088;-84
2022/04/25 07:16:52;;;;;;;17.42;13.27;;;10.80;99.90;;;;;;4880217;29;20045;-84
2022/04/25 07:19:20;;;;;;;16.52;12.40;;;10.90;99.90;;;;;;4879838;29;20126;-84
2022/04/25 07:30:04;;;;;;;15.98;12.48;;;11.10;99.90;;;;;;4882742;29;20064;-84
2022/04/25 07:32:32;;;;;;;16.73;12.73;;;11.10;99.90;;;;;;4883418;29;20578;-85
2022/04/25 07:35:01;;;;;;;15.77;12.93;;;11.10;99.90;;;;;;4882912;29;20064;-82
2022/04/25 07:37:33;;;;;;;16.42;12.77;;;11.10;99.90;;;;;;4883286;29;20051;-83
2022/04/25 07:40:02;;;;;;;16.05;12.80;;;11.10;99.90;;;;;;4883537;29;20053;-82
2022/04/25 07:42:31;;;;;;;17.10;13.48;;;11.20;99.90;;;;;;4883559;29;20139;-83
2022/04/25 07:44:58;;;;;;;17.80;13.55;;;11.00;99.90;;;;;;4883287;29;20407;-81
2022/04/25 07:47:27;;;;;;;15.20;12.88;;;11.00;99.90;;;;;;4882970;29;20045;-83
2022/04/25 07:49:54;;;;;;;15.80;12.93;;;11.10;99.90;;;;;;4883013;29;20136;-82
2022/04/25 07:52:21;;;;;;;15.45;12.50;;;11.30;99.90;;;;;;4883149;29;20132;-82
2022/04/25 07:54:48;;;;;;;14.48;11.20;;;11.40;99.90;;;;;;4883068;29;20139;-82
2022/04/25 07:57:16;;;;;;;14.82;11.90;;;11.60;99.90;;;;;;4882831;29;20052;-84
2022/04/25 07:59:43;;;;;;;18.92;13.23;;;11.60;99.90;;;;;;4882926;29;20057;-83
2022/04/25 08:02:13;;;;;;;15.65;12.73;;;11.60;99.90;;;;;;4882105;29;20075;-82
2022/04/25 08:04:41;;;;;;;17.13;13.40;;;11.60;99.90;;;;;;4883118;29;20089;-82
2022/04/25 08:07:09;;;;;;;15.23;11.77;;;11.60;99.90;;;;;;4882840;29;20184;-82
2022/04/25 08:09:36;;;;;;;15.25;12.45;;;11.80;99.90;;;;;;4882244;29;20133;-83
2022/04/25 08:20:19;;;;;;;13.57;11.05;;;11.70;99.90;;;;;;4901285;29;20111;-85
2022/04/25 08:22:46;;;;;;;13.77;11.32;;;11.80;99.90;;;;;;4917885;29;20059;-84
2022/04/25 08:25:15;;;;;;;15.65;12.40;;;11.90;99.90;;;;;;4899959;29;20049;-87
2022/04/25 08:27:42;;;;;;;14.27;11.30;;;11.90;99.90;;;;;;4874142;29;20085;-84
2022/04/25 08:30:11;;;;;;;13.52;10.98;;;11.90;99.90;;;;;;4871716;29;20395;-82
2022/04/25 08:32:39;;;;;;;13.27;10.63;;;12.00;99.90;;;;;;4879171;29;20517;-83
2022/04/25 08:35:08;;;;;;;12.40;9.88;;;12.20;99.90;;;;;;4879449;29;20080;-84
2022/04/25 08:37:37;;;;;;;13.05;10.45;;;12.30;99.90;;;;;;4879068;29;20056;-84
2022/04/25 08:40:05;;;;;;;11.95;10.20;;;12.20;99.90;;;;;;4879220;29;20064;-82
2022/04/25 08:42:32;;;;;;;13.13;9.98;;;12.20;99.90;;;;;;4879443;29;20511;-83
2022/04/25 08:45:02;;;;;;;13.52;10.77;;;12.30;99.90;;;;;;4887315;29;20147;-82
2022/04/25 08:47:34;;;;;;;14.60;11.25;;;12.10;99.90;;;;;;4898270;29;20060;-82
2022/04/25 08:50:01;;;;;;;14.02;10.73;;;12.00;99.90;;;;;;4897547;29;20367;-84
2022/04/25 08:52:30;;;;;;;14.02;11.07;;;12.20;99.90;;;;;;4898204;29;20064;-83
2022/04/25 08:55:00;;;;;;;13.80;10.98;;;12.00;99.90;;;;;;4898441;29;20478;-84
2022/04/25 08:57:30;;;;;;;14.57;11.50;;;12.00;99.90;;;;;;4898310;29;20052;-83
2022/04/25 08:59:59;;;;;;;14.18;11.23;;;12.10;99.90;;;;;;4881780;29;20117;-83
2022/04/25 09:02:26;;;;;;;13.80;11.20;;;12.10;99.90;;;;;;4878616;29;20068;-84
2022/04/25 09:04:53;;;;;;;14.88;11.25;;;12.20;99.90;;;;;;4878401;29;20472;-83
2022/04/25 09:07:20;;;;;;;13.85;10.60;;;12.30;99.90;;;;;;4878404;29;20053;-83
2022/04/25 09:09:48;;;;;;;13.25;10.25;;;12.30;99.90;;;;;;4878513;29;20546;-82
2022/04/25 09:12:17;;;;;;;13.18;10.57;;;12.40;99.90;;;;;;4879360;29;20499;-83
2022/04/25 09:14:47;;;;;;;12.50;10.15;;;12.50;99.90;;;;;;4897012;29;20502;-83
2022/04/25 09:17:14;;;;;;;13.20;10.40;;;12.70;99.90;;;;;;4897202;29;20570;-83
2022/04/25 09:19:41;;;;;;;14.07;10.93;;;12.70;99.90;;;;;;4896994;29;20063;-83
2022/04/25 09:22:10;;;;;;;13.88;10.93;;;12.70;99.90;;;;;;4896940;29;20045;-83
2022/04/25 09:24:45;;;;;;;13.55;10.20;;;12.70;99.90;;;;;;4897036;29;20135;-84
2022/04/25 09:27:19;;;;;;;12.57;9.27;;;12.80;99.90;;;;;;4896960;29;20649;-83
2022/04/25 09:29:48;;;;;;;13.05;9.90;;;12.70;99.90;;;;;;4897617;29;20395;-83
2022/04/25 09:32:17;;;;;;;12.02;9.45;;;12.80;99.90;;;;;;4897402;29;20084;-83
2022/04/25 09:35:02;;;;;;;12.05;8.75;;;12.80;99.90;;;;;;4896966;29;20148;-83
2022/04/25 09:37:45;;;;;;;;;;;12.80;99.60;;;;;;4896963;29;20068;-85
2022/04/25 09:40:15;;;;;;;11.57;8.90;;;12.70;99.90;;;;;;4897407;29;19927;-83
2022/04/25 09:42:43;;;;;;;11.55;9.00;;;12.80;99.90;;;;;;4877424;29;20048;-87
2022/04/25 09:45:11;;;;;;;11.63;8.48;;;12.90;99.90;;;;;;4878435;29;20132;-83
2022/04/25 09:47:39;;;;;;;13.75;9.77;;;12.90;99.90;;;;;;4861390;29;20065;-84
2022/04/25 09:50:09;;;;;;;12.85;9.25;;;13.00;99.90;;;;;;4877689;29;20077;-84
2022/04/25 09:52:53;;;;;;;12.38;9.50;;;12.90;99.90;;;;;;4877621;29;20083;-84
2022/04/25 09:55:21;;;;;;;12.80;9.43;;;13.00;99.90;;;;;;4884330;29;20044;-84
2022/04/25 09:57:50;;;;;;;11.38;9.43;;;12.90;98.90;;;;;;4896953;29;20112;-84
2022/04/25 10:00:33;;;;;;;12.65;10.07;;;12.90;99.80;;;;;;4896675;29;20056;-85
2022/04/25 10:03:01;;;;;;;12.27;9.25;;;12.90;99.90;;;;;;4896868;29;20079;-84
2022/04/25 10:05:44;;;;;;;12.93;9.90;;;13.00;99.90;;;;;;4896418;29;20151;-83
2022/04/25 10:08:13;;;;;;;13.55;9.50;;;13.10;99.90;;;;;;4896124;29;20064;-83
2022/04/25 10:10:46;;;;;;;11.55;9.25;;;13.20;99.60;;;;;;4895791;29;20057;-84
2022/04/25 10:13:15;;;;;;;10.68;8.10;;;13.30;98.50;;;;;;4896295;29;20144;-83
2022/04/25 10:15:44;;;;;;;12.95;9.00;;;13.30;98.30;;;;;;4896111;29;20556;-84
2022/04/25 10:18:12;;;;;;;12.60;9.63;;;13.30;97.00;;;;;;4896710;29;20052;-83
2022/04/25 10:20:42;;;;;;;11.27;8.80;;;13.30;98.40;;;;;;4879772;29;20518;-85
2022/04/25 10:23:11;;;;;;;12.13;9.00;;;13.50;98.10;;;;;;4893862;29;20059;-84
2022/04/25 10:25:40;;;;;;;11.77;8.90;;;13.50;97.90;;;;;;4877511;29;20491;-83
2022/04/25 10:28:14;;;;;;;9.68;7.78;;;13.50;97.20;;;;;;4877996;29;20396;-84
2022/04/25 10:30:46;;;;;;;9.85;7.60;;;13.60;98.20;;;;;;4877763;29;20057;-84
2022/04/25 10:33:17;;;;;;;10.77;8.55;;;13.70;97.80;;;;;;4877055;29;20436;-84
2022/04/25 10:35:45;;;;;;;9.63;7.60;;;13.80;98.30;;;;;;4877773;29;20053;-83
2022/04/25 10:38:50;;;;;;;10.27;7.95;;;14.00;97.90;;;;;;4887336;29;20052;-85
2022/04/25 10:44:56;;;;;;;10.85;8.55;;;14.00;97.20;;;;;;4897895;29;20064;-85
2022/04/25 10:47:25;;;;;;;11.25;8.48;;;14.20;96.70;;;;;;4898604;29;20052;-84
2022/04/25 10:50:09;;;;;;;10.73;8.70;;;14.20;96.70;;;;;;4901311;29;20064;-84
2022/04/25 10:52:56;;;;;;;10.23;7.95;;;14.20;96.10;;;;;;4897173;29;20116;-83
2022/04/25 10:55:42;;;;;;;12.07;8.95;;;14.30;95.60;;;;;;4896265;29;20052;-85
2022/04/25 10:58:24;;;;;;;11.10;8.20;;;14.40;95.20;;;;;;4880830;29;20139;-84
2022/04/25 11:01:05;;;;;;;8.93;7.18;;;14.40;95.20;;;;;;4893645;29;20435;-83
2022/04/25 11:03:35;;;;;;;9.65;7.88;;;14.60;95.70;;;;;;4897811;29;20052;-84
2022/04/25 11:06:07;;;;;;;9.13;6.88;;;14.60;95.80;;;;;;4893674;29;20047;-83
2022/04/25 11:08:50;;;;;;;10.60;7.80;;;14.70;96.10;;;;;;4880943;29;20616;-83
2022/04/25 11:11:22;;;;;;;10.20;7.30;;;14.70;95.60;;;;;;4880931;29;20063;-83
2022/04/25 11:14:17;;;;;;;8.85;6.22;;;14.70;94.70;;;;;;4881881;29;20052;-86
2022/04/25 11:17:13;;;;;;;8.75;6.63;;;14.70;95.00;;;;;;4881088;29;20068;-84
2022/04/25 11:19:48;;;;;;;10.35;8.15;;;14.60;94.60;;;;;;4881912;29;20057;-84
2022/04/25 11:22:54;;;;;;;11.23;8.52;;;14.40;94.70;;;;;;4897165;29;20467;-84
2022/04/25 11:25:41;;;;;;;9.60;8.15;;;14.50;95.70;;;;;;4862452;29;20053;-83
2022/04/25 11:28:11;;;;;;;8.43;6.78;;;14.40;95.60;;;;;;4880716;29;20065;-83
2022/04/25 11:30:40;;;;;;;10.27;8.10;;;14.60;95.10;;;;;;4881126;29;20056;-83
2022/04/25 11:33:09;;;;;;;10.02;7.68;;;14.40;94.60;;;;;;4880922;29;20061;-83
2022/04/25 11:35:39;;;;;;;10.70;8.13;;;14.40;95.00;;;;;;4880802;29;20091;-83
2022/04/25 11:38:07;;;;;;;12.45;10.00;;;14.30;94.60;;;;;;4894956;29;20061;-84
2022/04/25 11:40:35;;;;;;;13.30;10.15;;;14.30;95.20;;;;;;4898840;29;20057;-83
2022/04/25 11:43:03;;;;;;;11.55;8.75;;;14.30;94.60;;;;;;4897300;29;20406;-84
2022/04/25 11:45:32;;;;;;;9.77;7.55;;;14.20;94.80;;;;;;4899327;29;20052;-83
2022/04/25 11:48:00;;;;;;;9.98;7.93;;;14.20;95.30;;;;;;4898914;29;20053;-83
2022/04/25 11:50:29;;;;;;;8.93;6.78;;;14.20;96.00;;;;;;4897057;29;20053;-84
2022/04/25 11:52:57;;;;;;;10.35;8.57;;;14.20;96.60;;;;;;4880269;29;20056;-84
2022/04/25 11:55:33;;;;;;;9.00;7.45;;;14.00;97.00;;;;;;4880634;29;20053;-85
2022/04/25 11:58:01;;;;;;;11.40;8.80;;;14.00;98.00;;;;;;4880751;29;20064;-84
2022/04/25 12:00:28;;;;;;;8.20;6.10;;;13.80;98.50;;;;;;4883197;29;20053;-85
2022/04/25 12:02:55;;;;;;;6.00;4.22;;;13.20;99.80;;;;;;4882751;29;20152;-83
2022/04/25 12:05:32;;;;;;;7.60;4.78;;;12.60;99.90;;;;;;4887950;29;20100;-83
2022/04/25 12:16:15;;;;;;;7.07;5.80;;;10.80;99.90;;;;;;4897245;29;20060;-82
2022/04/25 12:18:51;;;;;;;8.88;5.47;;;10.80;99.90;;;;;;4896584;29;20064;-82
2022/04/25 12:21:21;;;;;;;7.47;5.10;;;10.70;99.90;;;;;;4878977;29;20159;-83
2022/04/25 12:23:50;;;;;;;7.50;5.45;;;10.70;99.90;;;;;;4879406;29;20148;-81
2022/04/25 12:26:20;;;;;;;8.20;5.53;;;10.60;99.90;;;;;;4878891;29;20057;-82
2022/04/25 12:28:53;;;;;;;8.98;5.97;;;10.70;99.90;;;;;;4879186;29;20076;-83
2022/04/25 12:31:20;;;;;;;9.98;6.57;;;10.60;99.90;;;;;;4879236;29;20411;-82
2022/04/25 12:33:50;;;;;;;8.15;6.15;;;10.80;99.90;;;;;;4886460;29;20053;-83
2022/04/25 12:36:21;;;;;;;8.02;6.00;;;10.90;99.90;;;;;;4897558;29;20520;-82
2022/04/25 12:38:57;;;;;;;8.68;6.82;;;10.80;99.90;;;;;;4897406;29;20056;-81
2022/04/25 12:41:26;;;;;;;9.32;6.82;;;10.70;99.90;;;;;;4893048;29;20513;-83
2022/04/25 12:43:56;;;;;;;8.73;6.95;;;10.70;99.90;;;;;;4887140;29;20052;-83
2022/04/25 12:46:41;;;;;;;8.68;6.75;;;10.70;99.90;;;;;;4897344;29;20056;-82
2022/04/25 12:49:12;;;;;;;8.43;6.90;;;10.80;99.90;;;;;;4897310;29;20494;-83
2022/04/25 12:51:44;;;;;;;8.95;6.80;;;10.70;99.90;;;;;;4897464;29;20067;-81
2022/04/25 12:54:25;;;;;;;8.40;6.88;;;10.80;99.90;;;;;;4897431;29;20415;-82
2022/04/25 12:56:58;;;;;;;8.52;6.70;;;11.00;99.90;;;;;;4897583;29;20048;-82
2022/04/25 12:59:30;;;;;;;9.25;6.05;;;11.00;99.90;;;;;;4880472;29;20136;-82
2022/04/25 13:02:07;;;;;;;8.23;5.40;;;11.20;99.90;;;;;;4878018;29;20061;-81
2022/04/25 13:04:48;;;;;;;7.32;5.20;;;11.40;99.90;;;;;;4878675;29;20064;-81
2022/04/25 13:07:18;;;;;;;8.10;6.00;;;11.60;99.90;;;;;;4878436;29;20053;-84
2022/04/25 13:09:45;;;;;;;7.63;5.45;;;11.60;99.90;;;;;;4878678;29;20081;-80
2022/04/25 13:12:18;;;;;;;8.95;5.53;;;11.70;99.90;;;;;;4882082;29;20077;-81
2022/04/25 13:14:47;;;;;;;6.75;5.07;;;11.70;99.90;;;;;;4890711;29;20052;-80
2022/04/25 13:17:14;;;;;;;7.13;5.35;;;11.80;99.90;;;;;;4905596;29;20088;-81
2022/04/25 13:19:43;;;;;;;8.82;5.50;;;12.00;99.90;;;;;;4890775;29;20141;-81
2022/04/25 13:22:11;;;;;;;7.25;5.40;;;12.20;99.90;;;;;;4896473;29;20061;-81
2022/04/25 13:24:39;;;;;;;6.55;5.07;;;12.40;99.90;;;;;;4896545;29;20079;-82
2022/04/25 13:27:07;;;;;;;7.10;4.75;;;12.40;99.90;;;;;;4859141;29;20140;-82
2022/04/25 13:29:34;;;;;;;7.90;5.05;;;12.60;99.90;;;;;;4859351;29;20069;-81
2022/04/25 13:32:01;;;;;;;6.63;4.40;;;12.80;99.90;;;;;;4859202;29;20050;-81
2022/04/25 13:34:28;;;;;;;7.95;4.13;;;12.80;99.90;;;;;;4859216;29;20069;-80
2022/04/25 13:36:58;;;;;;;5.43;3.50;;;13.00;99.90;;;;;;4860417;29;20056;-80
2022/04/25 13:39:28;;;;;;;4.53;3.20;;;12.90;99.90;;;;;;4897024;29;20060;-80
2022/04/25 13:41:57;;;;;;;4.07;2.80;;;12.80;99.90;;;;;;4896512;29;20095;-81
2022/04/25 13:44:24;;;;;;;4.65;3.17;;;12.60;99.90;;;;;;4894430;29;20048;-80
2022/04/25 13:46:51;;;;;;;4.50;3.10;;;12.60;99.90;;;;;;4896445;29;20409;-79
2022/04/25 13:49:19;;;;;;;4.38;2.90;;;12.70;99.90;;;;;;4896185;29;20103;-81
2022/04/25 13:51:46;;;;;;;4.80;2.88;;;12.70;99.90;;;;;;4891988;29;20061;-82
2022/04/25 13:54:14;;;;;;;3.95;2.72;;;12.70;99.90;;;;;;4877605;29;20156;-82
2022/04/25 13:56:43;;;;;;;4.22;2.78;;;12.60;99.90;;;;;;4877763;29;20448;-80
2022/04/25 13:59:13;;;;;;;4.28;2.85;;;12.80;99.90;;;;;;4877244;29;20117;-81
2022/04/25 14:01:40;;;;;;;4.65;2.90;;;12.90;99.90;;;;;;4877022;29;20069;-82
2022/04/25 14:04:07;;;;;;;4.88;2.88;;;12.90;99.90;;;;;;4877640;29;20092;-80
2022/04/25 14:06:34;;;;;;;4.22;2.78;;;12.90;99.90;;;;;;4877231;29;20056;-81
2022/04/25 14:09:02;;;;;;;5.28;2.90;;;13.00;99.90;;;;;;4877698;29;20057;-82
2022/04/25 14:11:31;;;;;;;5.05;3.00;;;13.10;99.90;;;;;;4877402;29;20076;-88
2022/04/25 14:13:59;;;;;;;4.53;3.20;;;13.40;99.90;;;;;;4882446;29;20147;-84
2022/04/25 14:16:28;;;;;;;5.30;3.42;;;14.00;99.90;;;;;;4897051;29;20127;-81
2022/04/25 14:18:55;;;;;;;4.45;3.10;;;15.00;99.90;;;;;;4897696;29;20066;-87
2022/04/25 14:21:23;;;;;;;4.28;3.00;;;15.80;99.90;;;;;;4897578;29;20559;-87
2022/04/25 14:23:50;;;;;;;4.13;2.58;;;16.40;99.90;;;;;;4897431;29;20104;-85
2022/04/25 14:26:18;;;;;;;4.10;2.70;;;16.50;99.90;;;;;;4897081;29;20116;-85
2022/04/25 14:28:46;;;;;;;4.80;3.20;;;17.10;99.90;;;;;;4896456;29;20099;-88
2022/04/25 14:31:13;;;;;;;4.28;2.70;;;17.70;99.60;;;;;;4896332;29;20084;-86
2022/04/25 14:33:42;;;;;;;3.70;2.65;;;17.70;96.40;;;;;;4896376;29;20135;-87
2022/04/25 14:36:09;;;;;;;3.20;1.92;;;18.00;96.60;;;;;;4897139;29;20163;-85
2022/04/25 14:38:36;;;;;;;3.72;1.90;;;18.10;95.00;;;;;;4880146;29;20052;-88
2022/04/25 14:41:03;;;;;;;2.63;1.42;;;18.10;95.30;;;;;;4878078;29;20049;-86
2022/04/25 14:43:35;;;;;;;2.67;1.30;;;18.80;95.10;;;;;;4860084;29;20055;-87
2022/04/25 14:46:03;;;;;;;2.90;1.58;;;19.60;91.10;;;;;;4877999;29;20060;-86
2022/04/25 14:48:31;;;;;;;3.65;1.35;;;20.10;80.90;;;;;;4860871;29;20049;-84
2022/04/25 14:56:32;;;;;;;2.95;1.40;;;20.50;80.20;;;;;;4876801;29;20158;-82
2022/04/25 14:59:01;;;;;;;2.40;1.30;;;20.30;76.90;;;;;;4859828;29;20135;-81
2022/04/25 15:01:28;;;;;;;2.92;1.55;;;19.90;77.50;;;;;;4876220;29;20518;-84
2022/04/25 15:03:56;;;;;;;2.65;1.45;;;19.80;79.30;;;;;;4876837;29;20384;-82
2022/04/25 15:06:25;;;;;;;2.30;1.13;;;20.40;77.10;;;;;;4889065;29;20116;-82
2022/04/25 15:08:52;;;;;;;3.47;1.48;;;20.90;74.30;;;;;;4881626;29;20083;-84
2022/04/25 15:11:20;;;;;;;2.38;1.20;;;21.80;73.70;;;;;;4876865;29;20056;-84
2022/04/25 15:13:47;;;;;;;4.20;2.10;;;22.70;72.20;;;;;;4877822;29;20531;-83
2022/04/25 15:16:14;;;;;;;3.40;2.20;;;22.40;71.60;;;;;;4877263;29;20095;-82
2022/04/25 15:18:41;;;;;;;3.33;1.70;;;22.30;72.80;;;;;;4874075;29;20059;-84
2022/04/25 15:21:11;;;;;;;2.22;1.10;;;22.50;68.70;;;;;;4895072;29;20524;-82
2022/04/25 15:23:40;;;;;;;1.83;1.00;;;22.40;69.70;;;;;;4894512;29;20447;-81
2022/04/25 15:26:08;;;;;;;2.92;1.20;;;22.30;69.60;;;;;;4887649;29;20069;-82
2022/04/25 15:28:36;;;;;;;2.58;1.10;;;22.30;69.40;;;;;;4881871;29;20061;-83
2022/04/25 15:31:03;;;;;;;2.10;1.20;;;22.80;69.20;;;;;;4876152;29;20053;-79
2022/04/25 15:33:30;;;;;;;2.28;1.10;;;22.60;69.10;;;;;;4883133;29;20466;-78
2022/04/25 15:35:59;;;;;;;2.58;1.10;;;22.50;67.20;;;;;;4892712;29;20049;-80
2022/04/25 15:38:27;;;;;;;2.20;1.02;;;22.40;65.60;;;;;;4892587;29;20111;-79
2022/04/25 15:40:55;;;;;;;2.80;1.00;;;22.20;67.00;;;;;;4895015;29;20053;-80
2022/04/25 15:43:22;;;;;;;3.10;1.60;;;21.50;67.00;;;;;;4884237;29;20049;-76
2022/04/25 15:45:49;;;;;;;2.70;1.40;;;21.00;70.20;;;;;;4891124;29;20505;-79
2022/04/25 15:48:16;;;;;;;3.90;2.17;;;21.50;68.50;;;;;;4893515;29;20058;-77
2022/04/25 15:50:43;;;;;;;2.47;1.25;;;22.00;68.30;;;;;;4878570;29;20433;-76
2022/04/25 15:53:10;;;;;;;2.50;1.00;;;22.30;67.20;;;;;;4879733;29;20059;-79
2022/04/25 15:58:23;;;;;;;2.08;1.17;;;20.30;67.80;;;;;;4880096;29;20105;-78
2022/04/25 16:00:50;;;;;;;2.20;1.23;;;19.20;68.50;;;;;;4878413;29;20144;-80
2022/04/25 16:03:18;;;;;;;2.72;1.30;;;19.00;67.60;;;;;;4879747;29;20068;-80
2022/04/25 16:05:47;;;;;;;2.92;1.30;;;18.50;70.50;;;;;;4879779;29;20053;-80
2022/04/25 16:08:16;;;;;;;2.03;1.17;;;18.10;72.50;;;;;;4879151;29;20419;-79
2022/04/25 16:10:45;;;;;;;2.60;1.48;;;18.00;72.50;;;;;;4878770;29;20105;-79
2022/04/25 16:13:12;;;;;;;2.65;1.48;;;17.30;73.40;;;;;;4879529;29;20414;-79
2022/04/25 16:15:41;;;;;;;2.40;1.30;;;17.40;77.50;;;;;;4879867;29;20088;-84
2022/04/25 16:18:08;;;;;;;2.80;1.40;;;17.00;76.60;;;;;;4879601;29;20164;-83
2022/04/25 16:20:36;;;;;;;3.13;1.38;;;16.80;77.30;;;;;;4881395;29;20137;-84
2022/04/25 16:23:04;;;;;;;2.72;1.50;;;16.70;80.00;;;;;;4881798;29;20052;-84
2022/04/25 16:25:31;;;;;;;3.13;1.60;;;16.40;77.40;;;;;;4879226;29;20136;-83
2022/04/25 16:27:59;;;;;;;2.90;1.50;;;16.30;81.10;;;;;;4879547;29;20434;-85
2022/04/25 16:30:28;;;;;;;2.90;1.60;;;16.40;80.90;;;;;;4878676;29;20055;-88
2022/04/25 16:32:57;;;;;;;2.80;1.60;;;16.50;82.80;;;;;;4880390;29;20144;-86
2022/04/25 16:35:27;;;;;;;3.20;1.67;;;16.40;87.30;;;;;;4879564;29;20052;-84
2022/04/25 16:37:54;;;;;;;3.30;1.50;;;16.50;90.10;;;;;;4879808;29;20152;-85
2022/04/25 16:40:22;;;;;;;3.22;1.55;;;16.50;90.30;;;;;;4880664;29;20045;-83
2022/04/25 16:42:50;;;;;;;2.63;1.58;;;16.50;92.10;;;;;;4879191;29;20499;-90
2022/04/25 16:45:17;;;;;;;3.53;1.60;;;16.40;92.50;;;;;;4876160;29;20049;-88
2022/04/25 16:47:45;;;;;;;3.03;1.50;;;16.20;91.10;;;;;;4879329;29;20171;-86
2022/04/25 16:50:13;;;;;;;3.72;1.80;;;16.20;90.70;;;;;;4851369;29;20056;-86
2022/04/25 16:52:40;;;;;;;3.50;1.90;;;15.80;91.30;;;;;;4857015;29;20060;-86
2022/04/25 16:55:09;;;;;;;3.13;1.95;;;15.40;93.00;;;;;;4875620;29;20117;-86
2022/04/25 16:57:36;;;;;;;3.65;1.98;;;15.50;95.10;;;;;;4879315;29;20560;-86
2022/04/25 17:00:04;;;;;;;3.33;1.80;;;15.50;94.80;;;;;;4879402;29;20495;-86
2022/04/25 17:02:31;;;;;;;3.22;1.80;;;15.40;96.30;;;;;;4878578;29;20072;-85
2022/04/25 17:04:58;;;;;;;7.50;4.28;;;15.40;96.40;;;;;;4877895;29;20144;-86
2022/04/25 17:07:26;;;;;;;8.60;4.45;;;15.00;97.50;;;;;;4878183;29;20063;-84
2022/04/25 17:09:53;;;;;;;7.07;4.40;;;15.00;99.50;;;;;;4878895;29;20053;-85
2022/04/25 17:12:21;;;;;;;8.90;5.50;;;14.90;99.30;;;;;;4877646;29;20095;-85
2022/04/25 17:14:48;;;;;;;5.80;3.75;;;15.00;99.60;;;;;;4878225;29;20091;-81
2022/04/25 17:17:16;;;;;;;3.72;2.38;;;14.70;99.90;;;;;;4881876;29;20056;-84
2022/04/25 17:19:44;;;;;;;3.92;2.33;;;14.50;99.90;;;;;;4860877;29;20516;-83
2022/04/25 17:22:12;;;;;;;3.85;2.50;;;14.50;99.90;;;;;;4878442;29;20052;-84
2022/04/25 17:24:41;;;;;;;5.40;2.80;;;13.60;99.90;;;;;;4863825;29;20056;-82
2022/04/25 17:27:08;;;;;;;4.85;3.00;;;12.60;99.90;;;;;;4878973;29;20147;-82
2022/04/25 17:29:36;;;;;;;4.03;2.90;;;12.20;99.90;;;;;;4878198;29;20049;-83
